sensor_id;sensor_type;location;lat;lon;timestamp;P1;durP1;ratioP1;P2;durP2;ratioP2
19521;SDS011;9905;52.126;5.596;2022-09-27T00:00:45;18.35;;;17.85;;
19521;SDS011;9905;52.126;5.596;2022-09-27T00:03:11;19.23;;;18.63;;
19521;SDS011;9905;52.126;5.596;2022-09-27T00:05:40;20.05;;;19.35;;
19521;SDS011;9905;52.126;5.596;2022-09-27T00:08:07;18.80;;;18.10;;
19521;SDS011;9905;52.126;5.596;2022-09-27T00:10:34;19.33;;;18.45;;
19521;SDS011;9905;52.126;5.596;2022-09-27T00:13:00;19.00;;;18.23;;
19521;SDS011;9905;52.126;5.596;2022-09-27T00:15:27;19.58;;;19.02;;
19521;SDS011;9905;52.126;5.596;2022-09-27T00:17:54;18.98;;;18.38;;
19521;SDS011;9905;52.126;5.596;2022-09-27T00:20:21;18.83;;;18.00;;
19521;SDS011;9905;52.126;5.596;2022-09-27T00:22:49;18.80;;;18.20;;
19521;SDS011;9905;52.126;5.596;2022-09-27T00:25:15;18.50;;;18.00;;
19521;SDS011;9905;52.126;5.596;2022-09-27T00:27:43;18.70;;;18.10;;
19521;SDS011;9905;52.126;5.596;2022-09-27T00:30:10;19.80;;;19.20;;
19521;SDS011;9905;52.126;5.596;2022-09-27T00:32:38;19.17;;;18.48;;
19521;SDS011;9905;52.126;5.596;2022-09-27T00:35:05;19.40;;;18.50;;
19521;SDS011;9905;52.126;5.596;2022-09-27T00:37:32;19.48;;;18.88;;
19521;SDS011;9905;52.126;5.596;2022-09-27T00:40:01;18.65;;;18.10;;
19521;SDS011;9905;52.126;5.596;2022-09-27T00:42:27;18.83;;;17.98;;
19521;SDS011;9905;52.126;5.596;2022-09-27T00:45:05;20.23;;;19.58;;
19521;SDS011;9905;52.126;5.596;2022-09-27T00:47:42;19.55;;;18.90;;
19521;SDS011;9905;52.126;5.596;2022-09-27T00:50:21;19.58;;;18.98;;
19521;SDS011;9905;52.126;5.596;2022-09-27T00:52:54;18.67;;;17.85;;
19521;SDS011;9905;52.126;5.596;2022-09-27T00:55:29;18.67;;;18.13;;
19521;SDS011;9905;52.126;5.596;2022-09-27T00:57:59;18.23;;;17.73;;
19521;SDS011;9905;52.126;5.596;2022-09-27T01:00:28;19.65;;;19.05;;
19521;SDS011;9905;52.126;5.596;2022-09-27T01:02:56;18.98;;;18.45;;
19521;SDS011;9905;52.126;5.596;2022-09-27T01:05:24;18.35;;;17.85;;
19521;SDS011;9905;52.126;5.596;2022-09-27T01:07:53;19.20;;;18.70;;
19521;SDS011;9905;52.126;5.596;2022-09-27T01:10:20;18.65;;;18.15;;
19521;SDS011;9905;52.126;5.596;2022-09-27T01:12:53;19.23;;;18.73;;
19521;SDS011;9905;52.126;5.596;2022-09-27T01:15:25;19.30;;;18.60;;
19521;SDS011;9905;52.126;5.596;2022-09-27T01:18:02;18.90;;;18.40;;
19521;SDS011;9905;52.126;5.596;2022-09-27T01:26:42;18.88;;;18.27;;
19521;SDS011;9905;52.126;5.596;2022-09-27T01:29:25;19.23;;;18.52;;
19521;SDS011;9905;52.126;5.596;2022-09-27T01:32:03;18.80;;;18.30;;
19521;SDS011;9905;52.126;5.596;2022-09-27T01:34:35;18.40;;;17.90;;
19521;SDS011;9905;52.126;5.596;2022-09-27T01:37:09;18.58;;;18.08;;
19521;SDS011;9905;52.126;5.596;2022-09-27T01:39:45;18.90;;;18.40;;
19521;SDS011;9905;52.126;5.596;2022-09-27T01:42:20;18.33;;;17.83;;
19521;SDS011;9905;52.126;5.596;2022-09-27T01:44:51;18.35;;;17.83;;
19521;SDS011;9905;52.126;5.596;2022-09-27T01:47:26;17.95;;;17.20;;
19521;SDS011;9905;52.126;5.596;2022-09-27T01:50:00;17.65;;;17.25;;
19521;SDS011;9905;52.126;5.596;2022-09-27T01:52:30;18.15;;;17.70;;
19521;SDS011;9905;52.126;5.596;2022-09-27T01:55:03;18.88;;;18.17;;
19521;SDS011;9905;52.126;5.596;2022-09-27T01:57:36;17.67;;;17.17;;
19521;SDS011;9905;52.126;5.596;2022-09-27T02:00:06;18.20;;;17.70;;
19521;SDS011;9905;52.126;5.596;2022-09-27T02:02:37;18.05;;;17.48;;
19521;SDS011;9905;52.126;5.596;2022-09-27T02:05:07;18.00;;;17.50;;
19521;SDS011;9905;52.126;5.596;2022-09-27T02:07:39;17.95;;;17.45;;
19521;SDS011;9905;52.126;5.596;2022-09-27T02:10:13;18.58;;;18.08;;
19521;SDS011;9905;52.126;5.596;2022-09-27T02:12:45;18.00;;;17.50;;
19521;SDS011;9905;52.126;5.596;2022-09-27T02:15:17;18.45;;;17.95;;
19521;SDS011;9905;52.126;5.596;2022-09-27T02:17:49;18.90;;;18.40;;
19521;SDS011;9905;52.126;5.596;2022-09-27T02:20:23;17.75;;;17.25;;
19521;SDS011;9905;52.126;5.596;2022-09-27T02:22:56;19.08;;;18.27;;
19521;SDS011;9905;52.126;5.596;2022-09-27T02:25:29;19.17;;;18.67;;
19521;SDS011;9905;52.126;5.596;2022-09-27T02:28:05;18.67;;;18.17;;
19521;SDS011;9905;52.126;5.596;2022-09-27T02:30:36;19.25;;;18.75;;
19521;SDS011;9905;52.126;5.596;2022-09-27T02:33:04;19.27;;;18.60;;
19521;SDS011;9905;52.126;5.596;2022-09-27T02:35:31;18.42;;;17.92;;
19521;SDS011;9905;52.126;5.596;2022-09-27T02:37:59;18.00;;;17.50;;
19521;SDS011;9905;52.126;5.596;2022-09-27T02:40:29;18.27;;;17.67;;
19521;SDS011;9905;52.126;5.596;2022-09-27T02:42:57;19.05;;;18.35;;
19521;SDS011;9905;52.126;5.596;2022-09-27T02:45:26;19.75;;;19.15;;
19521;SDS011;9905;52.126;5.596;2022-09-27T02:47:58;18.60;;;18.00;;
19521;SDS011;9905;52.126;5.596;2022-09-27T02:50:39;18.75;;;18.25;;
19521;SDS011;9905;52.126;5.596;2022-09-27T02:53:21;19.00;;;18.40;;
19521;SDS011;9905;52.126;5.596;2022-09-27T02:55:56;19.42;;;18.75;;
19521;SDS011;9905;52.126;5.596;2022-09-27T02:58:30;19.17;;;18.63;;
19521;SDS011;9905;52.126;5.596;2022-09-27T03:01:08;19.17;;;18.50;;
19521;SDS011;9905;52.126;5.596;2022-09-27T03:03:45;18.80;;;18.30;;
19521;SDS011;9905;52.126;5.596;2022-09-27T03:06:16;18.83;;;18.17;;
19521;SDS011;9905;52.126;5.596;2022-09-27T03:08:45;19.92;;;19.25;;
19521;SDS011;9905;52.126;5.596;2022-09-27T03:11:13;19.50;;;19.00;;
19521;SDS011;9905;52.126;5.596;2022-09-27T03:13:40;19.73;;;18.90;;
19521;SDS011;9905;52.126;5.596;2022-09-27T03:16:07;20.05;;;19.45;;
19521;SDS011;9905;52.126;5.596;2022-09-27T03:18:34;18.40;;;17.88;;
19521;SDS011;9905;52.126;5.596;2022-09-27T03:21:02;19.40;;;18.55;;
19521;SDS011;9905;52.126;5.596;2022-09-27T03:23:29;19.85;;;19.25;;
19521;SDS011;9905;52.126;5.596;2022-09-27T03:25:56;19.23;;;18.60;;
19521;SDS011;9905;52.126;5.596;2022-09-27T03:28:23;19.60;;;18.83;;
19521;SDS011;9905;52.126;5.596;2022-09-27T03:30:50;19.95;;;19.25;;
19521;SDS011;9905;52.126;5.596;2022-09-27T03:33:17;19.70;;;19.05;;
19521;SDS011;9905;52.126;5.596;2022-09-27T03:35:43;19.67;;;18.90;;
19521;SDS011;9905;52.126;5.596;2022-09-27T03:38:13;19.85;;;19.20;;
19521;SDS011;9905;52.126;5.596;2022-09-27T03:40:40;20.30;;;19.70;;
19521;SDS011;9905;52.126;5.596;2022-09-27T03:43:06;20.35;;;19.65;;
19521;SDS011;9905;52.126;5.596;2022-09-27T03:45:33;20.75;;;19.98;;
19521;SDS011;9905;52.126;5.596;2022-09-27T03:48:00;20.65;;;19.85;;
19521;SDS011;9905;52.126;5.596;2022-09-27T03:50:27;20.23;;;19.52;;
19521;SDS011;9905;52.126;5.596;2022-09-27T03:52:54;20.98;;;20.02;;
19521;SDS011;9905;52.126;5.596;2022-09-27T03:55:22;21.88;;;21.08;;
19521;SDS011;9905;52.126;5.596;2022-09-27T03:57:48;21.20;;;20.40;;
19521;SDS011;9905;52.126;5.596;2022-09-27T04:00:15;22.02;;;21.15;;
19521;SDS011;9905;52.126;5.596;2022-09-27T04:02:42;20.40;;;19.70;;
19521;SDS011;9905;52.126;5.596;2022-09-27T04:05:09;22.17;;;21.17;;
19521;SDS011;9905;52.126;5.596;2022-09-27T04:07:36;20.70;;;19.80;;
19521;SDS011;9905;52.126;5.596;2022-09-27T04:10:03;19.70;;;19.05;;
19521;SDS011;9905;52.126;5.596;2022-09-27T04:12:32;20.02;;;19.23;;
19521;SDS011;9905;52.126;5.596;2022-09-27T04:14:59;20.45;;;19.48;;
19521;SDS011;9905;52.126;5.596;2022-09-27T04:17:26;20.63;;;19.83;;
19521;SDS011;9905;52.126;5.596;2022-09-27T04:19:53;19.75;;;19.02;;
19521;SDS011;9905;52.126;5.596;2022-09-27T04:22:19;19.17;;;18.65;;
19521;SDS011;9905;52.126;5.596;2022-09-27T04:24:47;19.75;;;18.65;;
19521;SDS011;9905;52.126;5.596;2022-09-27T04:27:14;19.33;;;18.52;;
19521;SDS011;9905;52.126;5.596;2022-09-27T04:29:42;20.33;;;19.70;;
19521;SDS011;9905;52.126;5.596;2022-09-27T04:32:10;19.98;;;19.35;;
19521;SDS011;9905;52.126;5.596;2022-09-27T04:34:37;19.52;;;18.83;;
19521;SDS011;9905;52.126;5.596;2022-09-27T04:37:21;19.75;;;19.20;;
19521;SDS011;9905;52.126;5.596;2022-09-27T04:39:48;18.83;;;18.08;;
19521;SDS011;9905;52.126;5.596;2022-09-27T04:42:14;19.02;;;18.08;;
19521;SDS011;9905;52.126;5.596;2022-09-27T04:44:43;19.77;;;19.08;;
19521;SDS011;9905;52.126;5.596;2022-09-27T04:47:11;19.45;;;18.58;;
19521;SDS011;9905;52.126;5.596;2022-09-27T04:49:38;18.70;;;18.10;;
19521;SDS011;9905;52.126;5.596;2022-09-27T04:52:05;21.02;;;20.17;;
19521;SDS011;9905;52.126;5.596;2022-09-27T04:54:32;20.25;;;19.55;;
19521;SDS011;9905;52.126;5.596;2022-09-27T04:56:58;19.80;;;18.95;;
19521;SDS011;9905;52.126;5.596;2022-09-27T04:59:25;19.90;;;19.10;;
19521;SDS011;9905;52.126;5.596;2022-09-27T05:01:53;20.00;;;19.10;;
19521;SDS011;9905;52.126;5.596;2022-09-27T05:04:23;19.33;;;18.60;;
19521;SDS011;9905;52.126;5.596;2022-09-27T05:06:50;19.95;;;19.27;;
19521;SDS011;9905;52.126;5.596;2022-09-27T05:09:17;18.23;;;17.63;;
19521;SDS011;9905;52.126;5.596;2022-09-27T05:11:43;19.35;;;18.33;;
19521;SDS011;9905;52.126;5.596;2022-09-27T05:14:10;19.92;;;18.90;;
19521;SDS011;9905;52.126;5.596;2022-09-27T05:16:38;20.55;;;19.75;;
19521;SDS011;9905;52.126;5.596;2022-09-27T05:19:06;21.23;;;20.30;;
19521;SDS011;9905;52.126;5.596;2022-09-27T05:21:32;21.50;;;20.48;;
19521;SDS011;9905;52.126;5.596;2022-09-27T05:24:00;21.75;;;20.88;;
19521;SDS011;9905;52.126;5.596;2022-09-27T05:26:27;20.70;;;19.80;;
19521;SDS011;9905;52.126;5.596;2022-09-27T05:28:54;21.45;;;20.58;;
19521;SDS011;9905;52.126;5.596;2022-09-27T05:31:21;21.25;;;20.40;;
19521;SDS011;9905;52.126;5.596;2022-09-27T05:33:48;21.58;;;20.88;;
19521;SDS011;9905;52.126;5.596;2022-09-27T05:36:16;21.35;;;20.58;;
19521;SDS011;9905;52.126;5.596;2022-09-27T05:38:43;22.40;;;21.60;;
19521;SDS011;9905;52.126;5.596;2022-09-27T05:41:09;22.40;;;21.60;;
19521;SDS011;9905;52.126;5.596;2022-09-27T05:43:36;21.90;;;20.92;;
19521;SDS011;9905;52.126;5.596;2022-09-27T05:46:03;22.88;;;21.98;;
19521;SDS011;9905;52.126;5.596;2022-09-27T05:48:30;20.98;;;20.38;;
19521;SDS011;9905;52.126;5.596;2022-09-27T05:50:57;20.00;;;19.30;;
19521;SDS011;9905;52.126;5.596;2022-09-27T05:53:25;21.15;;;20.45;;
19521;SDS011;9905;52.126;5.596;2022-09-27T05:55:52;22.48;;;21.67;;
19521;SDS011;9905;52.126;5.596;2022-09-27T05:58:18;23.75;;;22.85;;
19521;SDS011;9905;52.126;5.596;2022-09-27T06:00:45;21.25;;;20.40;;
19521;SDS011;9905;52.126;5.596;2022-09-27T06:03:12;21.35;;;20.70;;
19521;SDS011;9905;52.126;5.596;2022-09-27T06:05:39;21.75;;;20.95;;
19521;SDS011;9905;52.126;5.596;2022-09-27T06:08:06;22.02;;;21.20;;
19521;SDS011;9905;52.126;5.596;2022-09-27T06:10:36;22.50;;;21.70;;
19521;SDS011;9905;52.126;5.596;2022-09-27T06:13:04;22.27;;;21.17;;
19521;SDS011;9905;52.126;5.596;2022-09-27T06:15:33;22.23;;;21.45;;
19521;SDS011;9905;52.126;5.596;2022-09-27T06:18:02;23.25;;;22.55;;
19521;SDS011;9905;52.126;5.596;2022-09-27T06:20:30;22.33;;;21.52;;
19521;SDS011;9905;52.126;5.596;2022-09-27T06:23:02;22.05;;;21.15;;
19521;SDS011;9905;52.126;5.596;2022-09-27T06:25:29;22.40;;;21.60;;
19521;SDS011;9905;52.126;5.596;2022-09-27T06:27:57;22.30;;;21.60;;
19521;SDS011;9905;52.126;5.596;2022-09-27T06:30:24;21.95;;;21.13;;
19521;SDS011;9905;52.126;5.596;2022-09-27T06:32:54;22.10;;;21.30;;
19521;SDS011;9905;52.126;5.596;2022-09-27T06:35:22;21.25;;;20.58;;
19521;SDS011;9905;52.126;5.596;2022-09-27T06:37:49;22.80;;;21.80;;
19521;SDS011;9905;52.126;5.596;2022-09-27T06:40:16;22.27;;;21.27;;
19521;SDS011;9905;52.126;5.596;2022-09-27T06:42:43;22.38;;;21.30;;
19521;SDS011;9905;52.126;5.596;2022-09-27T06:45:11;23.30;;;22.40;;
19521;SDS011;9905;52.126;5.596;2022-09-27T06:47:38;22.85;;;21.95;;
19521;SDS011;9905;52.126;5.596;2022-09-27T06:50:05;23.02;;;22.10;;
19521;SDS011;9905;52.126;5.596;2022-09-27T06:52:32;21.65;;;20.77;;
19521;SDS011;9905;52.126;5.596;2022-09-27T06:55:01;22.05;;;21.23;;
19521;SDS011;9905;52.126;5.596;2022-09-27T06:57:28;21.98;;;21.25;;
19521;SDS011;9905;52.126;5.596;2022-09-27T07:00:15;21.83;;;20.92;;
19521;SDS011;9905;52.126;5.596;2022-09-27T07:02:51;21.73;;;21.02;;
19521;SDS011;9905;52.126;5.596;2022-09-27T07:05:19;22.13;;;21.30;;
19521;SDS011;9905;52.126;5.596;2022-09-27T07:07:46;22.73;;;21.50;;
19521;SDS011;9905;52.126;5.596;2022-09-27T07:10:13;22.33;;;21.42;;
19521;SDS011;9905;52.126;5.596;2022-09-27T07:12:42;22.33;;;21.63;;
19521;SDS011;9905;52.126;5.596;2022-09-27T07:15:11;22.25;;;21.42;;
19521;SDS011;9905;52.126;5.596;2022-09-27T07:17:39;22.85;;;21.80;;
19521;SDS011;9905;52.126;5.596;2022-09-27T07:20:07;21.88;;;21.08;;
19521;SDS011;9905;52.126;5.596;2022-09-27T07:22:38;22.52;;;21.73;;
19521;SDS011;9905;52.126;5.596;2022-09-27T07:25:05;21.60;;;20.90;;
19521;SDS011;9905;52.126;5.596;2022-09-27T07:27:32;20.05;;;19.45;;
19521;SDS011;9905;52.126;5.596;2022-09-27T07:29:59;20.88;;;20.23;;
19521;SDS011;9905;52.126;5.596;2022-09-27T07:32:26;21.92;;;21.08;;
19521;SDS011;9905;52.126;5.596;2022-09-27T07:34:54;21.58;;;20.92;;
19521;SDS011;9905;52.126;5.596;2022-09-27T07:37:21;22.15;;;21.15;;
19521;SDS011;9905;52.126;5.596;2022-09-27T07:39:48;22.10;;;21.40;;
19521;SDS011;9905;52.126;5.596;2022-09-27T07:42:14;21.67;;;20.88;;
19521;SDS011;9905;52.126;5.596;2022-09-27T07:44:41;20.92;;;19.83;;
19521;SDS011;9905;52.126;5.596;2022-09-27T07:47:08;20.00;;;19.33;;
19521;SDS011;9905;52.126;5.596;2022-09-27T07:49:35;20.13;;;19.52;;
19521;SDS011;9905;52.126;5.596;2022-09-27T07:52:03;20.52;;;19.92;;
19521;SDS011;9905;52.126;5.596;2022-09-27T07:54:30;19.95;;;19.35;;
19521;SDS011;9905;52.126;5.596;2022-09-27T07:56:57;19.95;;;19.35;;
19521;SDS011;9905;52.126;5.596;2022-09-27T07:59:23;18.95;;;18.10;;
19521;SDS011;9905;52.126;5.596;2022-09-27T08:01:50;18.50;;;17.90;;
19521;SDS011;9905;52.126;5.596;2022-09-27T08:04:19;19.13;;;18.60;;
19521;SDS011;9905;52.126;5.596;2022-09-27T08:06:46;18.73;;;18.10;;
19521;SDS011;9905;52.126;5.596;2022-09-27T08:09:14;19.38;;;18.52;;
19521;SDS011;9905;52.126;5.596;2022-09-27T08:11:41;18.70;;;18.13;;
19521;SDS011;9905;52.126;5.596;2022-09-27T08:14:08;18.98;;;18.48;;
19521;SDS011;9905;52.126;5.596;2022-09-27T08:16:36;18.92;;;18.33;;
19521;SDS011;9905;52.126;5.596;2022-09-27T08:19:02;19.23;;;18.52;;
19521;SDS011;9905;52.126;5.596;2022-09-27T08:21:29;19.88;;;19.27;;
19521;SDS011;9905;52.126;5.596;2022-09-27T08:23:56;20.17;;;19.38;;
19521;SDS011;9905;52.126;5.596;2022-09-27T08:26:24;19.92;;;19.23;;
19521;SDS011;9905;52.126;5.596;2022-09-27T08:28:52;19.60;;;19.00;;
19521;SDS011;9905;52.126;5.596;2022-09-27T08:31:19;20.25;;;19.55;;
19521;SDS011;9905;52.126;5.596;2022-09-27T08:33:48;19.48;;;18.92;;
19521;SDS011;9905;52.126;5.596;2022-09-27T08:36:15;18.80;;;18.27;;
19521;SDS011;9905;52.126;5.596;2022-09-27T08:38:42;18.85;;;18.25;;
19521;SDS011;9905;52.126;5.596;2022-09-27T08:41:11;19.90;;;19.30;;
19521;SDS011;9905;52.126;5.596;2022-09-27T08:43:44;19.10;;;18.23;;
19521;SDS011;9905;52.126;5.596;2022-09-27T08:46:22;19.08;;;18.58;;
19521;SDS011;9905;52.126;5.596;2022-09-27T08:48:57;19.85;;;19.15;;
19521;SDS011;9905;52.126;5.596;2022-09-27T08:51:29;18.83;;;18.33;;
19521;SDS011;9905;52.126;5.596;2022-09-27T08:53:59;19.55;;;18.98;;
19521;SDS011;9905;52.126;5.596;2022-09-27T08:56:29;18.90;;;18.30;;
19521;SDS011;9905;52.126;5.596;2022-09-27T08:58:59;19.23;;;18.52;;
19521;SDS011;9905;52.126;5.596;2022-09-27T09:01:31;18.60;;;18.10;;
19521;SDS011;9905;52.126;5.596;2022-09-27T09:03:59;17.83;;;17.23;;
19521;SDS011;9905;52.126;5.596;2022-09-27T09:06:30;18.45;;;17.42;;
19521;SDS011;9905;52.126;5.596;2022-09-27T09:09:06;17.15;;;16.55;;
19521;SDS011;9905;52.126;5.596;2022-09-27T09:11:44;17.52;;;16.83;;
19521;SDS011;9905;52.126;5.596;2022-09-27T09:14:55;16.85;;;16.33;;
19521;SDS011;9905;52.126;5.596;2022-09-27T09:17:36;16.63;;;16.05;;
19521;SDS011;9905;52.126;5.596;2022-09-27T09:20:16;17.85;;;17.05;;
19521;SDS011;9905;52.126;5.596;2022-09-27T09:22:58;17.00;;;16.40;;
19521;SDS011;9905;52.126;5.596;2022-09-27T09:25:38;17.52;;;16.75;;
19521;SDS011;9905;52.126;5.596;2022-09-27T09:28:16;17.80;;;17.30;;
19521;SDS011;9905;52.126;5.596;2022-09-27T09:31:02;15.95;;;15.23;;
19521;SDS011;9905;52.126;5.596;2022-09-27T09:33:35;16.40;;;16.00;;
19521;SDS011;9905;52.126;5.596;2022-09-27T09:36:05;16.23;;;15.63;;
19521;SDS011;9905;52.126;5.596;2022-09-27T09:38:40;17.48;;;16.40;;
19521;SDS011;9905;52.126;5.596;2022-09-27T09:41:12;16.17;;;15.45;;
19521;SDS011;9905;52.126;5.596;2022-09-27T09:43:47;15.48;;;15.05;;
19521;SDS011;9905;52.126;5.596;2022-09-27T09:46:19;14.90;;;14.25;;
19521;SDS011;9905;52.126;5.596;2022-09-27T09:48:50;15.25;;;14.85;;
19521;SDS011;9905;52.126;5.596;2022-09-27T09:51:23;16.20;;;15.50;;
19521;SDS011;9905;52.126;5.596;2022-09-27T09:53:54;15.32;;;14.82;;
19521;SDS011;9905;52.126;5.596;2022-09-27T09:56:25;14.75;;;14.15;;
19521;SDS011;9905;52.126;5.596;2022-09-27T09:58:56;14.13;;;13.60;;
19521;SDS011;9905;52.126;5.596;2022-09-27T10:01:27;14.40;;;13.90;;
19521;SDS011;9905;52.126;5.596;2022-09-27T10:03:59;15.77;;;15.27;;
19521;SDS011;9905;52.126;5.596;2022-09-27T10:06:26;16.02;;;15.52;;
19521;SDS011;9905;52.126;5.596;2022-09-27T10:08:55;16.52;;;15.90;;
19521;SDS011;9905;52.126;5.596;2022-09-27T10:11:23;16.02;;;15.43;;
19521;SDS011;9905;52.126;5.596;2022-09-27T10:13:52;15.55;;;15.13;;
19521;SDS011;9905;52.126;5.596;2022-09-27T10:16:20;15.10;;;14.70;;
19521;SDS011;9905;52.126;5.596;2022-09-27T10:18:50;15.02;;;14.60;;
19521;SDS011;9905;52.126;5.596;2022-09-27T10:21:23;15.73;;;15.10;;
19521;SDS011;9905;52.126;5.596;2022-09-27T10:24:03;15.98;;;15.13;;
19521;SDS011;9905;52.126;5.596;2022-09-27T10:26:32;15.38;;;14.98;;
19521;SDS011;9905;52.126;5.596;2022-09-27T10:29:12;15.23;;;14.82;;
19521;SDS011;9905;52.126;5.596;2022-09-27T10:31:49;14.80;;;14.25;;
19521;SDS011;9905;52.126;5.596;2022-09-27T10:34:23;14.00;;;13.52;;
19521;SDS011;9905;52.126;5.596;2022-09-27T10:37:04;13.68;;;13.20;;
19521;SDS011;9905;52.126;5.596;2022-09-27T10:39:41;14.55;;;14.15;;
19521;SDS011;9905;52.126;5.596;2022-09-27T10:42:19;14.43;;;13.88;;
19521;SDS011;9905;52.126;5.596;2022-09-27T10:44:47;14.05;;;13.65;;
19521;SDS011;9905;52.126;5.596;2022-09-27T10:47:16;13.18;;;12.85;;
19521;SDS011;9905;52.126;5.596;2022-09-27T10:49:48;13.80;;;13.40;;
19521;SDS011;9905;52.126;5.596;2022-09-27T10:52:17;13.70;;;13.30;;
19521;SDS011;9905;52.126;5.596;2022-09-27T10:54:51;13.40;;;13.00;;
19521;SDS011;9905;52.126;5.596;2022-09-27T10:57:19;13.23;;;12.73;;
19521;SDS011;9905;52.126;5.596;2022-09-27T10:59:49;12.18;;;11.75;;
19521;SDS011;9905;52.126;5.596;2022-09-27T11:02:18;12.57;;;12.20;;
19521;SDS011;9905;52.126;5.596;2022-09-27T11:07:33;14.07;;;13.52;;
19521;SDS011;9905;52.126;5.596;2022-09-27T11:10:01;12.70;;;12.40;;
19521;SDS011;9905;52.126;5.596;2022-09-27T11:12:45;12.95;;;12.55;;
19521;SDS011;9905;52.126;5.596;2022-09-27T11:15:13;12.35;;;12.05;;
19521;SDS011;9905;52.126;5.596;2022-09-27T11:17:49;12.20;;;11.80;;
19521;SDS011;9905;52.126;5.596;2022-09-27T11:20:26;10.30;;;10.00;;
19521;SDS011;9905;52.126;5.596;2022-09-27T11:26:05;9.80;;;9.55;;
19521;SDS011;9905;52.126;5.596;2022-09-27T11:28:45;10.75;;;10.32;;
19521;SDS011;9905;52.126;5.596;2022-09-27T11:31:28;11.13;;;10.65;;
19521;SDS011;9905;52.126;5.596;2022-09-27T11:37:01;10.95;;;10.65;;
19521;SDS011;9905;52.126;5.596;2022-09-27T11:39:40;10.20;;;9.90;;
19521;SDS011;9905;52.126;5.596;2022-09-27T11:42:27;9.85;;;9.65;;
19521;SDS011;9905;52.126;5.596;2022-09-27T11:45:14;10.73;;;10.23;;
19521;SDS011;9905;52.126;5.596;2022-09-27T11:47:49;10.30;;;10.10;;
19521;SDS011;9905;52.126;5.596;2022-09-27T11:50:28;11.07;;;10.68;;
19521;SDS011;9905;52.126;5.596;2022-09-27T11:53:20;10.90;;;10.60;;
19521;SDS011;9905;52.126;5.596;2022-09-27T11:56:05;10.25;;;9.95;;
19521;SDS011;9905;52.126;5.596;2022-09-27T11:58:43;10.38;;;10.05;;
19521;SDS011;9905;52.126;5.596;2022-09-27T12:01:21;10.25;;;9.93;;
19521;SDS011;9905;52.126;5.596;2022-09-27T12:04:00;10.38;;;9.93;;
19521;SDS011;9905;52.126;5.596;2022-09-27T12:06:53;9.15;;;8.95;;
19521;SDS011;9905;52.126;5.596;2022-09-27T12:09:32;9.35;;;9.15;;
19521;SDS011;9905;52.126;5.596;2022-09-27T12:12:02;9.27;;;8.90;;
19521;SDS011;9905;52.126;5.596;2022-09-27T12:14:33;9.95;;;9.70;;
19521;SDS011;9905;52.126;5.596;2022-09-27T12:17:04;9.90;;;9.60;;
19521;SDS011;9905;52.126;5.596;2022-09-27T12:19:37;10.48;;;10.27;;
19521;SDS011;9905;52.126;5.596;2022-09-27T12:22:10;9.23;;;9.02;;
19521;SDS011;9905;52.126;5.596;2022-09-27T12:24:41;9.27;;;8.98;;
19521;SDS011;9905;52.126;5.596;2022-09-27T12:27:12;9.55;;;9.35;;
19521;SDS011;9905;52.126;5.596;2022-09-27T12:29:42;9.60;;;9.30;;
19521;SDS011;9905;52.126;5.596;2022-09-27T12:32:12;8.90;;;8.70;;
19521;SDS011;9905;52.126;5.596;2022-09-27T12:34:44;9.38;;;9.18;;
19521;SDS011;9905;52.126;5.596;2022-09-27T12:37:16;9.10;;;8.90;;
19521;SDS011;9905;52.126;5.596;2022-09-27T12:39:48;9.40;;;9.20;;
19521;SDS011;9905;52.126;5.596;2022-09-27T12:42:21;8.60;;;8.40;;
19521;SDS011;9905;52.126;5.596;2022-09-27T12:44:50;8.35;;;8.15;;
19521;SDS011;9905;52.126;5.596;2022-09-27T12:47:30;8.40;;;8.20;;
19521;SDS011;9905;52.126;5.596;2022-09-27T12:50:08;8.38;;;8.18;;
19521;SDS011;9905;52.126;5.596;2022-09-27T12:52:42;8.55;;;8.35;;
19521;SDS011;9905;52.126;5.596;2022-09-27T12:58:20;8.93;;;8.68;;
19521;SDS011;9905;52.126;5.596;2022-09-27T13:01:06;8.70;;;8.40;;
19521;SDS011;9905;52.126;5.596;2022-09-27T13:03:48;8.50;;;8.30;;
19521;SDS011;9905;52.126;5.596;2022-09-27T13:06:31;8.55;;;8.15;;
19521;SDS011;9905;52.126;5.596;2022-09-27T13:09:21;8.95;;;8.45;;
19521;SDS011;9905;52.126;5.596;2022-09-27T13:11:59;8.75;;;8.55;;
19521;SDS011;9905;52.126;5.596;2022-09-27T13:14:37;9.45;;;9.15;;
19521;SDS011;9905;52.126;5.596;2022-09-27T13:23:02;8.80;;;8.60;;
19521;SDS011;9905;52.126;5.596;2022-09-27T13:25:51;8.73;;;8.48;;
19521;SDS011;9905;52.126;5.596;2022-09-27T13:28:33;9.75;;;9.07;;
19521;SDS011;9905;52.126;5.596;2022-09-27T13:31:59;9.77;;;9.38;;
19521;SDS011;9905;52.126;5.596;2022-09-27T13:34:39;9.60;;;9.25;;
19521;SDS011;9905;52.126;5.596;2022-09-27T13:42:55;8.93;;;8.73;;
19521;SDS011;9905;52.126;5.596;2022-09-27T13:45:37;9.35;;;9.15;;
19521;SDS011;9905;52.126;5.596;2022-09-27T13:48:07;9.48;;;9.20;;
19521;SDS011;9905;52.126;5.596;2022-09-27T13:50:45;9.52;;;9.10;;
19521;SDS011;9905;52.126;5.596;2022-09-27T13:53:18;9.85;;;9.55;;
19521;SDS011;9905;52.126;5.596;2022-09-27T13:55:50;9.50;;;9.30;;
19521;SDS011;9905;52.126;5.596;2022-09-27T14:01:11;8.73;;;8.45;;
19521;SDS011;9905;52.126;5.596;2022-09-27T14:03:44;8.57;;;8.05;;
19521;SDS011;9905;52.126;5.596;2022-09-27T14:06:14;9.15;;;8.75;;
19521;SDS011;9905;52.126;5.596;2022-09-27T14:08:45;9.00;;;8.80;;
19521;SDS011;9905;52.126;5.596;2022-09-27T14:11:16;9.00;;;8.80;;
19521;SDS011;9905;52.126;5.596;2022-09-27T14:13:47;8.70;;;8.50;;
19521;SDS011;9905;52.126;5.596;2022-09-27T14:16:15;8.95;;;8.75;;
19521;SDS011;9905;52.126;5.596;2022-09-27T14:18:45;8.55;;;8.30;;
19521;SDS011;9905;52.126;5.596;2022-09-27T14:21:18;8.80;;;8.60;;
19521;SDS011;9905;52.126;5.596;2022-09-27T14:23:51;9.32;;;9.02;;
19521;SDS011;9905;52.126;5.596;2022-09-27T14:26:21;8.30;;;8.10;;
19521;SDS011;9905;52.126;5.596;2022-09-27T14:28:49;8.60;;;8.40;;
19521;SDS011;9905;52.126;5.596;2022-09-27T14:31:17;7.93;;;7.63;;
19521;SDS011;9905;52.126;5.596;2022-09-27T14:33:47;8.25;;;7.85;;
19521;SDS011;9905;52.126;5.596;2022-09-27T14:36:20;8.13;;;7.82;;
19521;SDS011;9905;52.126;5.596;2022-09-27T14:39:13;7.40;;;7.20;;
19521;SDS011;9905;52.126;5.596;2022-09-27T14:41:41;7.35;;;7.15;;
19521;SDS011;9905;52.126;5.596;2022-09-27T14:44:11;7.10;;;6.90;;
19521;SDS011;9905;52.126;5.596;2022-09-27T14:46:41;7.95;;;7.65;;
19521;SDS011;9905;52.126;5.596;2022-09-27T14:49:16;7.03;;;6.82;;
19521;SDS011;9905;52.126;5.596;2022-09-27T14:51:50;7.18;;;6.97;;
19521;SDS011;9905;52.126;5.596;2022-09-27T14:54:21;7.43;;;7.22;;
19521;SDS011;9905;52.126;5.596;2022-09-27T14:56:50;7.85;;;7.65;;
19521;SDS011;9905;52.126;5.596;2022-09-27T14:59:20;7.28;;;7.05;;
19521;SDS011;9905;52.126;5.596;2022-09-27T15:01:52;6.60;;;6.40;;
19521;SDS011;9905;52.126;5.596;2022-09-27T15:04:19;7.28;;;7.07;;
19521;SDS011;9905;52.126;5.596;2022-09-27T15:06:49;7.00;;;6.80;;
19521;SDS011;9905;52.126;5.596;2022-09-27T15:09:16;7.20;;;7.00;;
19521;SDS011;9905;52.126;5.596;2022-09-27T15:11:44;6.47;;;6.30;;
19521;SDS011;9905;52.126;5.596;2022-09-27T15:14:16;7.13;;;6.93;;
19521;SDS011;9905;52.126;5.596;2022-09-27T15:16:44;6.43;;;6.22;;
19521;SDS011;9905;52.126;5.596;2022-09-27T15:19:13;6.70;;;6.35;;
19521;SDS011;9905;52.126;5.596;2022-09-27T15:21:42;6.93;;;6.63;;
19521;SDS011;9905;52.126;5.596;2022-09-27T15:27:12;6.30;;;6.20;;
19521;SDS011;9905;52.126;5.596;2022-09-27T15:29:41;6.88;;;6.72;;
19521;SDS011;9905;52.126;5.596;2022-09-27T15:32:15;7.10;;;6.90;;
19521;SDS011;9905;52.126;5.596;2022-09-27T15:34:44;7.45;;;7.25;;
19521;SDS011;9905;52.126;5.596;2022-09-27T15:37:23;6.45;;;6.15;;
19521;SDS011;9905;52.126;5.596;2022-09-27T15:39:53;6.50;;;6.30;;